Time;durP1;ratioP1;P1;durP2;ratioP2;P2;SDS_P1;SDS_P2;PMS_P1;PMS_P2;Temp;Humidity;BMP_temperature;BMP_pressure;BME280_temperature;BME280_humidity;BME280_pressure;Samples;Min_cycle;Max_cycle;Signal;HPM_P1;HPM_P2
2021/05/03 00:00:48;;;;;;;20.38;17.65;;;23.60;83.50;;;;;;4988272;28;20026;-73
2021/05/03 00:03:16;;;;;;;19.13;17.13;;;23.50;79.40;;;;;;4993452;28;20030;-76
2021/05/03 00:05:45;;;;;;;21.80;16.90;;;23.20;83.50;;;;;;4992217;28;20113;-77
2021/05/03 00:08:14;;;;;;;18.85;16.88;;;23.50;82.60;;;;;;5008704;28;20036;-76
2021/05/03 00:10:41;;;;;;;20.38;18.23;;;24.50;81.80;;;;;;4989856;28;20030;-76
2021/05/03 00:13:09;;;;;;;18.35;14.43;;;24.20;79.00;;;;;;4991493;28;20049;-76
2021/05/03 00:15:36;;;;;;;19.52;16.63;;;24.90;77.00;;;;;;4989072;28;20512;-76
2021/05/03 00:18:03;;;;;;;17.95;16.23;;;25.10;74.50;;;;;;4989618;28;20472;-78
2021/05/03 00:20:31;;;;;;;18.02;16.15;;;25.30;76.70;;;;;;4991445;28;20105;-78
2021/05/03 00:22:58;;;;;;;16.83;15.05;;;24.70;77.60;;;;;;4990209;28;20532;-76
2021/05/03 00:25:26;;;;;;;18.75;15.10;;;24.70;76.50;;;;;;4989335;28;20704;-74
2021/05/03 00:27:54;;;;;;;16.48;14.70;;;25.30;75.90;;;;;;4989960;28;20039;-77
2021/05/03 00:30:21;;;;;;;16.73;14.68;;;25.60;73.90;;;;;;4989001;28;20026;-75
2021/05/03 00:32:49;;;;;;;16.15;14.57;;;25.70;73.50;;;;;;4990237;28;20085;-76
2021/05/03 00:35:16;;;;;;;15.60;14.00;;;25.50;76.10;;;;;;4992666;28;20465;-77
2021/05/03 00:37:44;;;;;;;16.63;14.35;;;25.70;73.60;;;;;;4992320;28;20105;-77
2021/05/03 00:40:11;;;;;;;17.00;15.20;;;25.90;73.40;;;;;;4990239;28;20042;-75
2021/05/03 00:42:42;;;;;;;20.27;18.27;;;25.80;72.10;;;;;;4992075;28;20370;-76
2021/05/03 00:45:12;;;;;;;20.30;18.17;;;25.60;73.00;;;;;;4990115;28;20045;-77
2021/05/03 00:47:41;;;;;;;20.77;17.45;;;25.50;73.80;;;;;;4987102;28;20125;-79
2021/05/03 00:50:11;;;;;;;20.83;17.95;;;25.70;74.70;;;;;;4990704;28;20092;-78
2021/05/03 00:52:39;;;;;;;23.20;20.00;;;26.60;74.70;;;;;;4989830;28;20112;-78
2021/05/03 00:55:07;;;;;;;24.08;21.60;;;26.70;70.60;;;;;;4990247;28;20058;-75
2021/05/03 00:57:36;;;;;;;25.15;22.25;;;26.60;71.70;;;;;;4990651;28;20022;-82
2021/05/03 01:00:10;;;;;;;24.27;21.67;;;26.10;70.10;;;;;;4990042;28;20022;-75
2021/05/03 01:02:39;;;;;;;32.95;27.48;;;25.60;73.40;;;;;;4992888;28;20026;-76
2021/05/03 01:05:07;;;;;;;25.02;22.35;;;25.70;74.40;;;;;;4995997;28;20037;-75
2021/05/03 01:07:35;;;;;;;26.92;23.27;;;26.50;72.40;;;;;;5000449;28;20030;-75
2021/05/03 01:10:04;;;;;;;32.25;28.38;;;26.30;69.10;;;;;;4995032;28;20026;-74
2021/05/03 01:12:32;;;;;;;22.83;20.33;;;25.70;72.20;;;;;;4992857;28;20038;-77
2021/05/03 01:14:59;;;;;;;23.30;21.02;;;26.20;72.60;;;;;;4992205;28;20747;-76
2021/05/03 01:17:32;;;;;;;22.20;19.92;;;26.80;71.00;;;;;;4992024;28;20042;-76
2021/05/03 01:20:19;;;;;;;23.70;21.13;;;26.80;69.70;;;;;;4997678;28;20150;-77
2021/05/03 01:22:46;;;;;;;26.55;22.58;;;26.90;70.80;;;;;;4993193;28;20046;-77
2021/05/03 01:25:14;;;;;;;23.88;21.00;;;27.60;69.40;;;;;;4992538;28;20030;-77
2021/05/03 01:27:41;;;;;;;20.65;18.52;;;27.00;72.40;;;;;;4993458;28;20026;-76
2021/05/03 01:30:10;;;;;;;18.55;16.75;;;27.10;69.60;;;;;;4990179;28;20030;-75
2021/05/03 01:32:38;;;;;;;20.85;18.70;;;27.30;70.00;;;;;;4992731;28;20046;-74
2021/05/03 01:35:06;;;;;;;23.77;18.88;;;27.00;68.90;;;;;;4993151;28;20049;-75
2021/05/03 01:37:33;;;;;;;22.77;20.50;;;27.70;71.00;;;;;;4993274;28;20022;-74
2021/05/03 01:40:01;;;;;;;22.45;19.33;;;27.50;66.90;;;;;;4992039;28;20168;-75
2021/05/03 01:42:28;;;;;;;17.33;15.50;;;27.60;67.20;;;;;;4989689;28;20026;-75
2021/05/03 01:45:01;;;;;;;20.60;18.20;;;28.00;68.30;;;;;;4992560;28;20517;-74
2021/05/03 01:47:30;;;;;;;24.25;20.50;;;28.00;67.10;;;;;;4996593;28;20120;-78
2021/05/03 01:49:57;;;;;;;25.83;21.63;;;28.30;68.30;;;;;;4994133;28;20166;-77
2021/05/03 01:52:25;;;;;;;29.08;22.70;;;28.10;67.00;;;;;;4990786;28;20041;-76
2021/05/03 01:54:53;;;;;;;25.92;21.88;;;27.90;66.70;;;;;;4989014;28;20389;-74
2021/05/03 01:57:21;;;;;;;26.65;22.08;;;28.10;67.80;;;;;;4992444;28;20033;-75
2021/05/03 01:59:52;;;;;;;29.65;25.63;;;28.20;66.00;;;;;;4992273;28;20096;-74
2021/05/03 02:02:20;;;;;;;25.92;23.05;;;27.80;65.40;;;;;;4991934;28;20087;-75
2021/05/03 02:04:47;;;;;;;34.40;29.30;;;27.70;67.90;;;;;;4994722;28;20125;-75
2021/05/03 02:07:16;;;;;;;31.92;28.52;;;27.30;67.40;;;;;;4994570;28;20084;-75
2021/05/03 02:09:45;;;;;;;34.13;26.65;;;27.10;67.90;;;;;;4996473;28;20038;-75
2021/05/03 02:12:13;;;;;;;27.75;24.90;;;27.20;69.10;;;;;;4995405;28;20396;-75
2021/05/03 02:14:42;;;;;;;31.85;28.23;;;27.50;67.90;;;;;;4992224;28;20924;-76
2021/05/03 02:17:11;;;;;;;26.33;22.73;;;27.70;66.60;;;;;;4994277;28;20034;-76
2021/05/03 02:19:38;;;;;;;34.20;30.65;;;28.10;68.30;;;;;;4995990;28;20084;-76
2021/05/03 02:22:06;;;;;;;31.58;26.55;;;28.10;66.30;;;;;;4992147;28;20030;-75
2021/05/03 02:24:33;;;;;;;34.38;30.33;;;27.90;66.50;;;;;;4992535;28;20029;-75
2021/05/03 02:27:01;;;;;;;38.08;29.33;;;27.60;65.40;;;;;;4997219;28;20026;-75
2021/05/03 02:29:28;;;;;;;27.83;24.25;;;27.70;65.70;;;;;;5000079;28;21364;-75
2021/05/03 02:31:55;;;;;;;25.80;21.08;;;28.20;66.10;;;;;;4998645;28;20441;-74
2021/05/03 02:34:23;;;;;;;29.20;22.63;;;28.60;63.80;;;;;;4994314;28;20022;-74
2021/05/03 02:36:55;;;;;;;26.63;22.35;;;28.50;63.30;;;;;;4991667;28;20033;-74
2021/05/03 02:39:22;;;;;;;22.75;19.48;;;28.70;63.10;;;;;;4992811;28;20034;-76
2021/05/03 02:41:50;;;;;;;16.30;13.57;;;29.50;61.60;;;;;;5002851;28;20065;-77
2021/05/03 02:44:17;;;;;;;18.48;15.38;;;29.00;60.20;;;;;;4991738;28;20133;-78
2021/05/03 02:46:45;;;;;;;19.98;17.60;;;29.00;60.00;;;;;;4992999;28;20025;-80
2021/05/03 02:49:12;;;;;;;20.52;18.38;;;28.80;59.40;;;;;;4992170;28;20458;-76
2021/05/03 02:51:41;;;;;;;23.63;19.90;;;28.70;60.40;;;;;;4991074;28;20037;-76
2021/05/03 02:54:08;;;;;;;21.40;17.23;;;28.60;61.90;;;;;;4990208;28;20381;-75
2021/05/03 02:56:36;;;;;;;19.88;16.65;;;28.60;59.70;;;;;;4990648;28;20073;-79
2021/05/03 02:59:03;;;;;;;19.83;16.05;;;28.70;60.10;;;;;;4995047;28;20069;-76
2021/05/03 03:01:31;;;;;;;22.02;17.65;;;28.70;61.10;;;;;;4988550;28;20523;-75
2021/05/03 03:03:58;;;;;;;19.05;16.70;;;28.80;59.40;;;;;;4987804;28;20038;-76
2021/05/03 03:06:26;;;;;;;19.50;17.42;;;28.80;62.10;;;;;;4990100;28;20120;-80
2021/05/03 03:08:53;;;;;;;19.98;16.27;;;29.00;59.60;;;;;;4993821;28;20033;-77
2021/05/03 03:11:22;;;;;;;19.38;15.63;;;28.80;60.00;;;;;;4992304;28;20109;-78
2021/05/03 03:13:49;;;;;;;22.45;19.23;;;28.90;59.00;;;;;;4990054;28;20092;-77
2021/05/03 03:16:25;;;;;;;18.83;16.83;;;28.60;61.40;;;;;;4989462;28;20062;-79
2021/05/03 03:18:56;;;;;;;28.08;21.67;;;28.60;60.80;;;;;;4983333;28;20030;-77
2021/05/03 03:21:24;;;;;;;24.25;19.58;;;28.40;61.10;;;;;;4992424;28;20149;-77
2021/05/03 03:23:53;;;;;;;26.63;18.42;;;28.40;62.00;;;;;;4991342;28;20054;-77
2021/05/03 03:26:20;;;;;;;23.10;18.55;;;28.60;60.90;;;;;;4988442;28;20030;-78
2021/05/03 03:28:48;;;;;;;18.67;16.75;;;28.90;62.80;;;;;;4987619;28;20096;-78
2021/05/03 03:31:15;;;;;;;18.58;15.98;;;28.80;59.70;;;;;;4988057;28;20031;-77
2021/05/03 03:33:43;;;;;;;18.52;15.55;;;28.70;60.30;;;;;;4993745;28;20026;-75
2021/05/03 03:36:10;;;;;;;21.88;17.33;;;28.60;59.80;;;;;;4990380;28;20030;-75
2021/05/03 03:38:38;;;;;;;19.33;14.88;;;28.30;60.80;;;;;;4989961;28;20629;-76
2021/05/03 03:41:05;;;;;;;18.30;15.02;;;28.20;60.80;;;;;;4990168;28;20097;-77
2021/05/03 03:43:33;;;;;;;15.45;13.38;;;27.90;60.60;;;;;;4986144;28;20480;-74
2021/05/03 03:46:00;;;;;;;17.88;15.75;;;27.70;59.60;;;;;;4991298;28;20050;-75
2021/05/03 03:48:28;;;;;;;16.90;14.57;;;27.30;62.20;;;;;;4991541;28;20061;-73
2021/05/03 03:50:55;;;;;;;15.55;13.88;;;27.20;62.20;;;;;;4992166;28;20053;-75
2021/05/03 03:53:23;;;;;;;16.48;14.05;;;27.00;61.80;;;;;;4991002;28;20042;-76
2021/05/03 03:55:51;;;;;;;20.00;14.48;;;26.70;61.50;;;;;;4989765;28;20030;-76
2021/05/03 03:58:19;;;;;;;16.95;13.38;;;26.70;63.10;;;;;;4989592;28;20038;-76
2021/05/03 04:00:46;;;;;;;17.48;12.50;;;26.80;62.40;;;;;;4991050;28;20174;-76
2021/05/03 04:03:14;;;;;;;16.88;12.57;;;27.00;61.80;;;;;;4993491;28;20019;-76
2021/05/03 04:06:10;;;;;;;17.17;12.15;;;27.10;60.10;;;;;;4995277;28;20165;-78
2021/05/03 04:14:02;;;;;;;14.90;11.90;;;26.80;61.10;;;;;;4994719;28;20033;-74
2021/05/03 04:27:06;;;;;;;16.38;11.25;;;26.00;63.80;;;;;;4992157;28;20034;-76
2021/05/03 04:29:33;;;;;;;17.15;12.15;;;25.70;64.60;;;;;;4987169;28;20026;-78
2021/05/03 04:32:01;;;;;;;19.45;12.02;;;25.60;63.40;;;;;;4990988;28;20038;-78
2021/05/03 04:34:28;;;;;;;16.95;11.05;;;25.50;64.80;;;;;;4988645;28;20030;-77
2021/05/03 04:36:55;;;;;;;14.50;11.00;;;25.40;64.40;;;;;;4987965;28;20030;-76
2021/05/03 04:39:23;;;;;;;14.50;11.07;;;25.40;63.80;;;;;;4991895;28;20132;-75
2021/05/03 04:41:50;;;;;;;15.15;10.75;;;25.30;63.80;;;;;;4990133;28;20033;-76
2021/05/03 04:44:18;;;;;;;13.63;9.95;;;25.20;63.80;;;;;;4986708;28;20385;-75
2021/05/03 04:46:45;;;;;;;12.35;10.38;;;25.00;64.00;;;;;;4989868;28;20101;-73
2021/05/03 04:49:13;;;;;;;14.00;10.98;;;24.90;65.40;;;;;;4996033;28;20047;-76
2021/05/03 04:51:40;;;;;;;12.38;9.30;;;24.90;65.00;;;;;;4991478;28;20034;-75
2021/05/03 04:54:07;;;;;;;11.85;9.20;;;24.90;64.70;;;;;;4994736;28;20136;-76
2021/05/03 04:56:35;;;;;;;11.90;8.88;;;24.70;64.30;;;;;;4994282;28;20030;-75
2021/05/03 04:59:02;;;;;;;11.07;9.27;;;24.70;64.40;;;;;;4992833;28;20034;-76
2021/05/03 05:01:33;;;;;;;17.98;10.27;;;24.70;64.80;;;;;;4996089;28;20085;-78
2021/05/03 05:04:00;;;;;;;12.05;8.35;;;24.70;64.40;;;;;;4994437;28;20030;-77
2021/05/03 05:06:28;;;;;;;15.13;8.27;;;24.80;63.60;;;;;;4997331;28;20034;-77
2021/05/03 05:08:55;;;;;;;11.40;7.88;;;24.70;63.70;;;;;;4998471;28;20083;-76
2021/05/03 05:11:22;;;;;;;12.10;8.05;;;24.70;63.70;;;;;;4993317;28;20022;-76
2021/05/03 05:13:50;;;;;;;10.80;8.65;;;24.70;63.40;;;;;;4994742;28;20038;-75
2021/05/03 05:16:18;;;;;;;9.20;8.20;;;24.70;63.90;;;;;;4992707;28;20026;-76
2021/05/03 05:18:47;;;;;;;17.50;7.70;;;24.70;64.30;;;;;;4993338;28;20109;-75
2021/05/03 05:21:15;;;;;;;10.38;6.90;;;24.70;64.50;;;;;;4988566;28;20037;-77
2021/05/03 05:23:42;;;;;;;9.18;6.82;;;24.60;63.50;;;;;;4991923;28;20026;-76
2021/05/03 05:26:10;;;;;;;10.98;5.88;;;24.60;64.00;;;;;;4996229;28;20030;-76
2021/05/03 05:28:38;;;;;;;9.15;6.35;;;24.70;63.50;;;;;;4997910;28;20022;-77
2021/05/03 05:31:06;;;;;;;9.02;5.82;;;24.80;63.30;;;;;;4995472;28;20031;-84
2021/05/03 05:33:34;;;;;;;9.80;6.20;;;24.80;62.50;;;;;;4996032;28;20488;-77
2021/05/03 05:36:02;;;;;;;8.65;5.97;;;24.70;62.90;;;;;;4998122;28;20531;-76
2021/05/03 05:38:29;;;;;;;7.28;5.15;;;24.90;62.50;;;;;;4990687;28;20030;-74
2021/05/03 05:40:57;;;;;;;8.85;4.28;;;25.00;62.20;;;;;;4995212;28;20102;-79
2021/05/03 05:43:25;;;;;;;6.35;3.70;;;25.10;61.40;;;;;;4995269;28;20026;-74
2021/05/03 05:45:52;;;;;;;7.35;5.35;;;25.20;61.20;;;;;;4994985;28;20085;-82
2021/05/03 05:48:19;;;;;;;5.53;3.25;;;25.30;61.20;;;;;;4995711;28;20125;-76
2021/05/03 05:50:47;;;;;;;4.47;3.38;;;25.30;60.40;;;;;;4989111;28;20038;-75
2021/05/03 05:53:15;;;;;;;3.42;2.88;;;25.30;60.60;;;;;;4994020;28;20176;-75
2021/05/03 05:55:42;;;;;;;6.03;3.45;;;25.30;60.00;;;;;;4990190;28;20481;-79
2021/05/03 05:58:11;;;;;;;4.78;2.97;;;25.30;59.80;;;;;;4996638;28;20083;-87
2021/05/03 06:00:38;;;;;;;6.88;2.63;;;25.20;59.60;;;;;;4997211;28;20065;-77
2021/05/03 06:03:05;;;;;;;4.10;1.73;;;25.20;58.30;;;;;;4992841;28;20080;-74
2021/05/03 06:05:33;;;;;;;2.55;2.28;;;25.00;58.90;;;;;;4994190;28;20034;-74
2021/05/03 06:08:00;;;;;;;4.45;1.65;;;25.00;59.70;;;;;;4997386;28;20097;-75
2021/05/03 06:10:28;;;;;;;4.82;1.95;;;25.00;59.70;;;;;;4992016;28;20041;-76
2021/05/03 06:12:55;;;;;;;3.55;2.05;;;25.10;59.80;;;;;;4995552;28;20038;-74
2021/05/03 06:15:23;;;;;;;2.42;1.70;;;25.00;60.10;;;;;;4993241;28;20568;-76
2021/05/03 06:17:50;;;;;;;2.83;2.05;;;24.80;61.00;;;;;;4993542;28;20038;-77
2021/05/03 06:20:18;;;;;;;3.22;2.38;;;24.60;62.00;;;;;;4991987;28;20084;-76
2021/05/03 06:22:45;;;;;;;6.50;2.88;;;24.40;63.40;;;;;;4992444;28;20613;-82
2021/05/03 06:25:13;;;;;;;5.10;2.65;;;24.20;63.30;;;;;;4994462;28;20053;-77
2021/05/03 06:27:40;;;;;;;4.97;2.25;;;24.10;64.40;;;;;;4991977;28;20038;-75
2021/05/03 06:30:08;;;;;;;4.38;2.58;;;23.90;65.10;;;;;;4994903;28;20481;-77
2021/05/03 06:32:35;;;;;;;5.57;1.67;;;23.80;65.60;;;;;;4992751;28;20535;-78
2021/05/03 06:35:03;;;;;;;5.35;2.42;;;23.70;65.90;;;;;;4994401;28;20401;-73
2021/05/03 06:37:30;;;;;;;5.10;2.08;;;23.60;66.60;;;;;;4996108;28;20106;-77
2021/05/03 06:39:58;;;;;;;1.95;1.60;;;23.50;67.10;;;;;;4996741;28;20492;-76
2021/05/03 06:42:25;;;;;;;3.10;1.90;;;23.50;67.30;;;;;;4998282;28;20030;-73
2021/05/03 06:44:53;;;;;;;7.70;2.00;;;23.40;67.60;;;;;;4995337;28;20022;-75
2021/05/03 06:47:20;;;;;;;4.97;2.80;;;23.30;67.60;;;;;;4989266;28;20456;-73
2021/05/03 06:49:47;;;;;;;4.07;2.08;;;23.20;67.80;;;;;;4991103;28;20060;-78
2021/05/03 06:52:15;;;;;;;4.18;2.53;;;23.20;68.50;;;;;;4991625;28;20378;-77
2021/05/03 06:54:42;;;;;;;4.50;2.38;;;23.00;68.90;;;;;;4997448;28;20026;-74
2021/05/03 06:57:10;;;;;;;3.33;2.08;;;23.00;69.60;;;;;;4994364;28;21499;-74
2021/05/03 06:59:37;;;;;;;4.88;2.75;;;22.90;69.80;;;;;;4992211;28;20048;-72
2021/05/03 07:02:05;;;;;;;4.28;2.50;;;22.80;69.80;;;;;;4996701;28;20030;-73
2021/05/03 07:04:34;;;;;;;23.38;12.95;;;22.80;70.60;;;;;;4996534;28;20025;-71
2021/05/03 07:07:01;;;;;;;13.85;8.63;;;22.70;70.80;;;;;;4992842;28;20037;-75
2021/05/03 07:09:29;;;;;;;13.00;5.60;;;22.70;71.30;;;;;;4993489;28;20037;-75
2021/05/03 07:11:57;;;;;;;7.05;4.25;;;22.60;71.90;;;;;;4990070;28;20045;-81
2021/05/03 07:14:24;;;;;;;5.82;3.22;;;22.50;72.10;;;;;;4991410;28;22230;-81
2021/05/03 07:16:52;;;;;;;7.20;3.65;;;22.40;72.70;;;;;;4989992;28;20026;-76
2021/05/03 07:19:20;;;;;;;4.70;2.60;;;22.40;73.20;;;;;;4992600;28;20362;-71
2021/05/03 07:21:48;;;;;;;7.50;3.28;;;22.30;73.20;;;;;;4995150;28;20538;-76
2021/05/03 07:24:15;;;;;;;6.63;3.30;;;22.20;73.90;;;;;;4996623;28;20078;-73
2021/05/03 07:26:43;;;;;;;7.80;2.92;;;22.20;74.70;;;;;;4993648;28;20030;-73
2021/05/03 07:29:10;;;;;;;4.43;3.42;;;22.10;76.20;;;;;;4998065;28;20017;-75
2021/05/03 07:31:38;;;;;;;5.95;3.33;;;22.00;75.90;;;;;;4996613;28;20042;-76
2021/05/03 07:34:05;;;;;;;6.65;2.95;;;22.00;77.20;;;;;;4994022;28;20018;-73
2021/05/03 07:36:33;;;;;;;6.03;3.20;;;21.80;76.60;;;;;;4991207;28;20030;-74
2021/05/03 07:39:01;;;;;;;6.93;2.53;;;21.80;77.30;;;;;;4987803;28;20042;-72
2021/05/03 07:41:28;;;;;;;10.68;3.67;;;21.70;77.50;;;;;;4989662;28;20133;-80
2021/05/03 07:43:56;;;;;;;5.25;3.35;;;21.60;78.90;;;;;;4989228;28;20034;-72
2021/05/03 07:46:26;;;;;;;8.27;4.03;;;21.60;79.70;;;;;;4987573;28;20109;-75
2021/05/03 07:49:01;;;;;;;6.85;3.35;;;21.60;80.20;;;;;;4991715;28;20043;-76
2021/05/03 07:51:29;;;;;;;11.25;4.30;;;21.50;80.10;;;;;;4990136;28;20034;-73
2021/05/03 07:53:56;;;;;;;13.80;4.32;;;21.40;81.10;;;;;;4989996;28;20507;-76
2021/05/03 07:56:28;;;;;;;11.05;4.63;;;21.30;80.40;;;;;;4988650;28;20047;-75
2021/05/03 07:58:56;;;;;;;11.48;3.95;;;21.20;81.40;;;;;;4994823;28;20026;-78
2021/05/03 08:01:23;;;;;;;7.85;3.05;;;21.20;80.40;;;;;;5001395;28;20046;-80
2021/05/03 08:03:51;;;;;;;7.63;3.92;;;21.10;80.90;;;;;;4994787;28;20031;-84
2021/05/03 08:06:18;;;;;;;7.53;3.30;;;21.10;81.80;;;;;;4991485;28;20018;-80
2021/05/03 08:08:48;;;;;;;10.45;3.15;;;21.00;81.60;;;;;;4992501;28;20036;-86
2021/05/03 08:11:17;;;;;;;17.95;6.75;;;20.90;82.60;;;;;;4990132;28;20050;-83
2021/05/03 08:13:46;;;;;;;15.38;8.48;;;20.80;82.70;;;;;;4989775;28;20046;-81
2021/05/03 08:16:18;;;;;;;20.73;11.40;;;20.80;82.40;;;;;;4990571;28;20033;-84
2021/05/03 08:18:47;;;;;;;19.50;13.70;;;20.80;82.30;;;;;;4991042;28;20026;-83
2021/05/03 08:21:14;;;;;;;10.32;4.10;;;20.80;81.90;;;;;;4990191;28;20037;-83
2021/05/03 08:23:43;;;;;;;4.63;2.63;;;20.80;81.50;;;;;;4988350;28;20038;-82
2021/05/03 08:26:14;;;;;;;6.18;3.20;;;20.80;81.40;;;;;;4992915;28;20018;-86
2021/05/03 08:28:46;;;;;;;6.82;2.88;;;20.80;81.30;;;;;;4996937;28;20042;-81
2021/05/03 08:31:15;;;;;;;4.55;2.72;;;20.70;81.60;;;;;;5000120;28;20051;-87
2021/05/03 08:33:43;;;;;;;4.50;2.72;;;20.70;82.10;;;;;;5002681;28;20542;-81
2021/05/03 08:36:12;;;;;;;8.85;3.50;;;20.80;82.10;;;;;;4999825;28;20037;-84
2021/05/03 08:38:41;;;;;;;4.70;2.53;;;20.80;81.60;;;;;;5002852;28;20109;-83
2021/05/03 08:41:16;;;;;;;4.20;2.63;;;20.80;81.80;;;;;;4995839;28;20032;-83
2021/05/03 08:43:47;;;;;;;10.20;3.07;;;20.70;82.00;;;;;;4993979;28;20026;-83
2021/05/03 08:46:31;;;;;;;5.57;2.40;;;20.70;82.00;;;;;;4993689;28;20330;-82
2021/05/03 08:49:18;;;;;;;6.30;2.08;;;20.70;82.30;;;;;;4992246;28;20047;-88
2021/05/03 08:54:30;;;;;;;6.07;1.98;;;20.60;83.00;;;;;;5001770;28;20026;-84
2021/05/03 08:56:58;;;;;;;5.25;2.45;;;20.60;83.30;;;;;;4992545;28;20049;-81
2021/05/03 08:59:25;;;;;;;6.45;2.85;;;20.60;83.80;;;;;;4993844;28;20035;-85
2021/05/03 09:01:54;;;;;;;5.32;2.38;;;20.50;84.50;;;;;;5000243;28;20088;-87
2021/05/03 09:04:27;;;;;;;2.97;1.88;;;20.40;85.80;;;;;;5000447;28;20387;-80
2021/05/03 09:07:13;;;;;;;4.55;2.10;;;20.40;86.30;;;;;;5003336;28;20030;-84
2021/05/03 09:09:54;;;;;;;6.85;2.20;;;20.40;86.60;;;;;;4999563;28;20026;-88
2021/05/03 09:12:24;;;;;;;2.88;1.42;;;20.50;86.90;;;;;;4997313;28;20039;-83
2021/05/03 09:15:02;;;;;;;4.75;1.75;;;20.50;87.10;;;;;;5001108;28;20037;-82
2021/05/03 09:17:41;;;;;;;3.88;2.25;;;20.50;87.00;;;;;;4993750;28;20061;-84
2021/05/03 09:20:18;;;;;;;3.35;1.80;;;20.40;87.10;;;;;;4988825;28;20018;-83
2021/05/03 09:22:56;;;;;;;3.67;1.85;;;20.40;87.70;;;;;;4992669;28;20076;-86
2021/05/03 09:25:34;;;;;;;3.45;2.42;;;20.30;88.20;;;;;;4995285;28;20545;-86
2021/05/03 09:28:12;;;;;;;3.75;2.10;;;20.20;88.50;;;;;;4995609;28;20030;-87
2021/05/03 09:30:44;;;;;;;4.10;2.45;;;20.20;87.80;;;;;;4996770;28;20029;-83
2021/05/03 09:33:32;;;;;;;9.30;2.65;;;20.10;87.10;;;;;;4996318;28;20038;-83
2021/05/03 09:36:02;;;;;;;3.83;1.80;;;20.10;87.20;;;;;;4994095;28;20389;-81
2021/05/03 09:38:46;;;;;;;7.75;2.95;;;20.10;87.20;;;;;;4998812;28;20052;-85
2021/05/03 09:41:25;;;;;;;3.47;2.50;;;20.20;87.30;;;;;;4999393;28;20031;-82
2021/05/03 09:44:04;;;;;;;4.75;2.17;;;20.20;87.30;;;;;;5001493;28;20417;-81
2021/05/03 09:46:39;;;;;;;6.88;2.13;;;20.10;87.90;;;;;;5001298;28;20033;-84
2021/05/03 09:49:09;;;;;;;4.95;2.25;;;20.10;88.60;;;;;;4999388;28;20038;-81
2021/05/03 09:51:50;;;;;;;5.47;2.17;;;20.10;89.00;;;;;;4991397;28;20057;-79
2021/05/03 09:54:27;;;;;;;3.92;2.70;;;20.10;89.50;;;;;;4994242;28;20041;-80
2021/05/03 09:57:05;;;;;;;6.68;2.13;;;20.10;90.00;;;;;;4989551;28;20049;-79
2021/05/03 09:59:43;;;;;;;4.85;2.17;;;20.00;90.20;;;;;;4997929;28;20076;-85
2021/05/03 10:02:28;;;;;;;3.67;2.60;;;20.00;90.20;;;;;;4998071;28;20022;-82
2021/05/03 10:05:02;;;;;;;4.20;1.83;;;20.00;90.40;;;;;;4997104;28;20022;-84
2021/05/03 10:07:31;;;;;;;2.83;1.73;;;19.90;90.90;;;;;;4993130;28;20113;-83
2021/05/03 10:11:03;;;;;;;6.63;2.58;;;19.90;91.10;;;;;;4994576;28;20390;-86
2021/05/03 10:12:58;;;;;;;2.88;1.90;;;19.90;91.20;;;;;;4998267;28;20058;-81
2021/05/03 10:15:28;;;;;;;4.35;2.00;;;19.80;91.30;;;;;;4999483;28;20069;-83
2021/05/03 10:17:56;;;;;;;4.15;2.45;;;19.70;91.30;;;;;;5000579;28;20073;-82
2021/05/03 10:20:23;;;;;;;4.10;2.47;;;19.70;91.50;;;;;;4994325;28;20422;-83
2021/05/03 10:22:56;;;;;;;4.80;3.05;;;19.60;91.70;;;;;;4989076;28;20038;-80
2021/05/03 10:25:24;;;;;;;4.60;2.08;;;19.60;91.60;;;;;;4989849;28;20018;-82
2021/05/03 10:27:53;;;;;;;3.90;2.40;;;19.60;91.70;;;;;;4990864;28;20027;-84
2021/05/03 10:30:23;;;;;;;5.13;2.42;;;19.50;91.80;;;;;;4994279;28;20026;-83
2021/05/03 10:33:04;;;;;;;5.82;2.80;;;19.50;92.00;;;;;;4995750;28;20513;-85
2021/05/03 10:35:37;;;;;;;7.10;2.78;;;19.40;92.00;;;;;;4994259;28;20022;-84
2021/05/03 10:38:07;;;;;;;5.32;2.80;;;19.30;92.00;;;;;;4997840;28;20030;-82
2021/05/03 10:40:35;;;;;;;6.85;3.55;;;19.20;92.10;;;;;;4993738;28;20037;-81
2021/05/03 10:43:06;;;;;;;4.97;3.10;;;19.20;92.20;;;;;;4992078;28;20109;-78
2021/05/03 10:45:41;;;;;;;4.72;2.78;;;19.10;92.20;;;;;;4994544;28;20053;-83
2021/05/03 10:48:41;;;;;;;6.43;2.97;;;19.00;92.30;;;;;;4992695;28;20027;-82
2021/05/03 10:54:31;;;;;;;3.60;2.72;;;18.80;92.50;;;;;;4993338;28;20129;-78
2021/05/03 10:57:04;;;;;;;6.28;3.13;;;18.80;92.70;;;;;;4994014;28;20113;-83
2021/05/03 10:59:55;;;;;;;4.65;2.78;;;18.70;93.00;;;;;;4988666;28;20106;-83
2021/05/03 11:02:25;;;;;;;3.88;2.45;;;18.70;92.90;;;;;;4992544;28;20026;-82
2021/05/03 11:05:10;;;;;;;6.25;2.72;;;18.60;93.00;;;;;;4996819;28;20045;-84
2021/05/03 11:08:07;;;;;;;6.65;3.58;;;18.60;93.10;;;;;;4992204;28;20062;-81
2021/05/03 11:11:07;;;;;;;5.68;3.50;;;18.60;93.20;;;;;;4995241;28;20038;-83
2021/05/03 11:13:44;;;;;;;5.60;3.88;;;18.60;93.20;;;;;;4991258;28;20444;-81
2021/05/03 11:16:31;;;;;;;4.85;3.38;;;18.60;93.10;;;;;;5002728;28;20026;-81
2021/05/03 11:19:00;;;;;;;4.28;3.42;;;18.50;93.20;;;;;;4994239;28;20038;-80
2021/05/03 11:21:46;;;;;;;5.90;3.78;;;18.40;93.40;;;;;;4991687;28;20500;-78
2021/05/03 11:24:32;;;;;;;5.85;2.90;;;18.50;93.50;;;;;;4994868;28;20042;-83
2021/05/03 11:27:09;;;;;;;4.32;2.53;;;18.40;93.40;;;;;;4989078;28;20070;-84
2021/05/03 11:32:15;;;;;;;6.45;2.88;;;18.30;93.60;;;;;;4992708;28;20046;-81
2021/05/03 11:35:00;;;;;;;6.53;2.35;;;18.20;93.80;;;;;;4998920;28;20038;-80
2021/05/03 11:37:36;;;;;;;4.20;2.77;;;18.20;93.80;;;;;;4998079;28;20018;-81
2021/05/03 11:45:23;;;;;;;2.83;1.98;;;18.10;94.00;;;;;;4997038;28;20102;-86
2021/05/03 11:48:00;;;;;;;10.25;2.92;;;18.10;94.10;;;;;;4997841;28;20093;-85
2021/05/03 11:50:30;;;;;;;5.88;2.95;;;18.10;94.30;;;;;;4992236;28;20117;-84
2021/05/03 11:52:57;;;;;;;5.63;2.25;;;18.20;94.40;;;;;;4993589;28;20073;-85
2021/05/03 11:55:27;;;;;;;4.30;2.22;;;18.20;94.80;;;;;;4992029;28;20022;-83
2021/05/03 11:57:57;;;;;;;5.78;3.17;;;18.20;94.70;;;;;;4994635;28;20531;-87
2021/05/03 12:00:27;;;;;;;7.78;3.50;;;18.20;94.70;;;;;;4992252;28;20057;-82
2021/05/03 12:03:07;;;;;;;14.13;4.45;;;18.20;94.70;;;;;;4993611;28;20026;-85
2021/05/03 12:05:35;;;;;;;13.60;5.18;;;18.10;94.50;;;;;;4994062;28;20049;-80
2021/05/03 12:08:16;;;;;;;11.30;5.53;;;18.00;94.40;;;;;;4990365;28;20096;-84
2021/05/03 12:10:46;;;;;;;11.05;4.22;;;17.90;94.40;;;;;;4992102;28;20030;-84
2021/05/03 12:13:19;;;;;;;10.43;5.20;;;17.90;94.50;;;;;;4992646;28;20560;-84
2021/05/03 12:15:46;;;;;;;9.85;5.30;;;17.90;94.50;;;;;;4988909;28;20481;-82
2021/05/03 12:18:23;;;;;;;9.18;4.95;;;17.80;94.40;;;;;;4992887;28;20029;-85
2021/05/03 12:20:51;;;;;;;11.27;5.80;;;17.90;94.40;;;;;;4994140;28;20030;-88
2021/05/03 12:23:25;;;;;;;12.68;5.65;;;17.90;94.40;;;;;;4988673;28;20430;-81
2021/05/03 12:25:58;;;;;;;9.82;5.80;;;17.90;94.40;;;;;;4993246;28;20030;-83
2021/05/03 12:28:30;;;;;;;9.43;5.30;;;17.80;94.40;;;;;;4994506;28;20022;-86
2021/05/03 12:31:02;;;;;;;9.52;5.70;;;17.80;94.50;;;;;;4999712;28;20505;-85
2021/05/03 12:33:39;;;;;;;9.20;5.88;;;17.70;94.70;;;;;;4998627;28;20041;-84
2021/05/03 12:36:13;;;;;;;9.48;5.47;;;17.80;94.80;;;;;;4998020;28;20111;-87
2021/05/03 12:38:42;;;;;;;7.97;6.15;;;17.90;94.60;;;;;;5004444;28;20150;-87
2021/05/03 12:41:27;;;;;;;10.23;5.32;;;17.90;94.60;;;;;;5004144;28;20027;-83
2021/05/03 12:44:04;;;;;;;11.23;5.22;;;18.00;94.50;;;;;;5007892;28;20026;-83
2021/05/03 12:46:35;;;;;;;9.25;5.53;;;18.00;94.40;;;;;;5007533;28;20102;-88
2021/05/03 12:49:07;;;;;;;10.02;6.45;;;18.00;94.40;;;;;;5004494;28;20046;-85
2021/05/03 12:51:49;;;;;;;9.50;5.70;;;18.00;94.30;;;;;;5004868;28;20026;-86
2021/05/03 12:57:25;;;;;;;13.68;4.80;;;18.00;94.30;;;;;;5005198;28;20033;-85
2021/05/03 13:00:03;;;;;;;7.55;4.25;;;18.00;94.40;;;;;;4979396;28;20073;-84
2021/05/03 13:02:38;;;;;;;9.05;5.75;;;17.90;94.30;;;;;;5003954;28;20050;-85
2021/05/03 13:05:32;;;;;;;12.27;5.53;;;17.80;94.50;;;;;;5000869;28;20049;-85
2021/05/03 13:08:11;;;;;;;10.80;4.95;;;17.70;94.70;;;;;;4999696;28;20022;-82
2021/05/03 13:30:19;;;;;;;10.43;5.53;;;17.50;95.40;;;;;;4992329;28;20508;-83
2021/05/03 13:32:47;;;;;;;11.23;5.75;;;17.50;95.40;;;;;;4995612;28;20043;-83
2021/05/03 13:35:15;;;;;;;8.95;5.93;;;17.60;95.50;;;;;;4995989;28;20030;-84
2021/05/03 13:37:56;;;;;;;9.85;5.22;;;17.60;95.40;;;;;;5001354;28;20425;-90
2021/05/03 13:40:24;;;;;;;9.23;5.25;;;17.60;95.40;;;;;;5015270;28;20036;-86
2021/05/03 13:42:53;;;;;;;7.80;5.40;;;17.50;95.30;;;;;;5012136;28;20034;-89
2021/05/03 13:45:24;;;;;;;11.48;6.05;;;17.50;95.30;;;;;;5012497;28;20492;-89
2021/05/03 13:47:52;;;;;;;10.30;4.78;;;17.40;95.40;;;;;;5006190;28;20035;-85